LKTB

Brno-Tuřany Airport

Brno, Czech Republic
METAR LKTB 210200Z 35007KT CAVOK 21/13 Q1018 NOSIG
Observed Flight Rules
Aug-21 @ 02:00 UTC (15 minutes ago) Visual Flight Rules
Wind Visibility Clouds
350° at 7 knots 10,000+ meters
  • Clear skies
Temperatures Readings
Current 21°C / 70°F
Dewpoint 13°C / 55°F
Humidity 60%
Altimeter 30.06" Hg
Pressure 1018 hPa
Elevation 246
METAR LKTB 210200Z 35007KT CAVOK 21/13 Q1018 NOSIG
Observed Flight Rules
Aug-21 @ 02:00 UTC
(15 minutes ago)
VFR
Wind Visibility
350° at 7 knots 10,000+ meters
Clouds
  • Clear skies
Temperature Dewpoint
21°C / 70°F 13°C / 55°F
Humidity Altimeter Pressure
60% 30.06" Hg 1018 hPa